ilmateenistus.ee keskkonnaagentuur.ee
EETN Tallinna lennuväli
FTEO31 EETN 192300
TAF EETN 192300Z 2000/2024 33012KT 9999 SCT015 OVC020 TEMPO 2000/2003
    34015G25KT 3000 SHRASN BKN006 BKN015CB BECMG 2010/2012 27006KT SCT030
    BECMG 2020/2022 16010KT 6000 RA SCT015 OVC025=

METAR EETN 200220Z 34008KT 310V010 9999 BKN022 04/M00 Q1013 R08/290195=
Tallinna lennuväli
EEKA Kärdla lennuväli
METAR EEKA 200220Z NIL=
Kärdla lennuväli
EEKE Kuressaare lennuväli
METAR EEKE 200220Z AUTO 31004KT 9999NDV FEW027 02/01 Q1015=
Kuressaare lennuväli
EEPU Pärnu lennuväli
METAR EEPU 200220Z NIL=
Pärnu lennuväli
EETU Tartu lennuväli
METAR EETU 200220Z AUTO 27012KT 9999 OVC007/// 01/00 Q1011=
Tartu lennuväli
EEEI Ämari lennuväli
METAR EEEI 200150Z 29009KT 9999 SCT021 OVC028 03/00 Q1013 R24/290095=
Ämari lennuväli